createdAt,value
2023-02-05T00:02:50.906Z,78400.56
2023-02-05T00:12:56.772Z,78384.38
2023-02-05T00:23:10.819Z,78370.19
2023-02-05T00:33:14.751Z,78347.91
2023-02-05T00:43:16.852Z,78319.56
2023-02-05T00:53:24.162Z,78313.50
2023-02-05T01:03:29.931Z,78325.63
2023-02-05T01:13:40.219Z,78313.50
2023-02-05T01:33:50.580Z,78275.00
2023-02-05T01:44:25.252Z,78248.69
2023-02-05T01:54:29.954Z,78258.81
2023-02-05T02:04:39.118Z,78256.78
2023-02-05T02:14:49.722Z,78287.16
2023-02-05T02:25:38.025Z,78281.09
2023-02-05T02:36:07.832Z,78266.91
2023-02-05T02:46:37.005Z,78291.22
2023-02-05T02:56:40.622Z,78291.22
2023-02-05T03:06:46.099Z,78301.34
2023-02-05T03:16:50.794Z,78303.38
2023-02-05T03:26:52.994Z,78297.28
2023-02-05T03:37:12.178Z,78287.16
2023-02-05T03:47:29.062Z,78268.94
2023-02-05T03:57:49.245Z,78266.91
2023-02-05T04:07:52.815Z,78285.13
2023-02-05T04:18:03.043Z,78285.13
2023-02-05T04:28:06.947Z,78303.38
2023-02-05T04:38:11.960Z,78313.50
2023-02-05T04:48:16.763Z,78321.59
2023-02-05T04:58:18.964Z,78333.75
2023-02-05T05:08:23.402Z,78325.63
2023-02-05T05:18:28.255Z,78325.63
2023-02-05T05:28:34.813Z,78331.72
2023-02-05T05:38:37.051Z,78331.72
2023-02-05T05:48:41.643Z,78329.69
2023-02-05T05:58:50.264Z,78351.97
2023-02-05T06:08:52.335Z,78362.09
2023-02-05T06:18:59.864Z,78364.13
2023-02-05T06:29:04.870Z,78374.25
2023-02-05T06:39:06.993Z,78358.03
2023-02-05T06:49:09.112Z,78345.88
2023-02-05T06:59:13.422Z,78345.88
2023-02-05T07:09:22.785Z,78311.47
2023-02-05T07:19:27.976Z,78329.69
2023-02-05T07:29:32.580Z,78317.53
2023-02-05T07:39:35.597Z,78285.13
2023-02-05T07:49:40.312Z,78250.72
2023-02-05T07:59:46.263Z,78224.38
2023-02-05T08:09:51.141Z,78220.34
2023-02-05T08:19:58.483Z,78167.69
2023-02-05T08:30:12.992Z,78062.38
2023-02-05T08:40:18.178Z,78092.75
2023-02-05T08:50:20.534Z,78159.59
2023-02-05T09:00:22.702Z,78171.72
2023-02-05T09:10:30.960Z,78187.94
2023-02-05T09:20:36.070Z,78171.72
2023-02-05T09:30:43.937Z,78127.19
2023-02-05T09:41:05.863Z,78191.97
2023-02-05T09:51:12.775Z,78220.34
2023-02-05T10:01:22.865Z,78202.09
2023-02-05T10:11:40.886Z,78220.34
2023-02-05T10:21:56.584Z,78224.38
2023-02-05T10:32:24.984Z,78151.47
2023-02-05T10:42:34.520Z,78110.97
2023-02-05T10:52:38.844Z,78090.72
2023-02-05T11:02:43.353Z,78050.22
2023-02-05T11:12:53.422Z,78050.22
2023-02-05T11:23:18.393Z,78023.91
2023-02-05T11:33:23.403Z,78050.22
2023-02-05T11:43:51.317Z,78038.09
2023-02-05T11:53:58.293Z,78066.44
2023-02-05T12:04:03.577Z,78029.97
2023-02-05T12:14:17.095Z,78034.03
2023-02-05T12:24:43.612Z,78058.34
2023-02-05T12:35:23.862Z,78086.69
2023-02-05T12:45:47.961Z,78078.59
2023-02-05T12:56:27.214Z,78092.75
2023-02-05T13:06:55.779Z,78062.38
2023-02-05T13:17:20.169Z,78074.53
2023-02-05T13:27:45.852Z,78052.25
2023-02-05T13:38:14.624Z,78086.69
2023-02-05T13:48:34.580Z,78108.97
2023-02-05T13:58:48.450Z,78100.84
2023-02-05T14:08:52.395Z,78086.69
2023-02-05T14:19:01.047Z,78086.69
2023-02-05T14:29:07.914Z,78110.97
2023-02-05T14:39:32.893Z,78123.13
2023-02-05T14:49:47.454Z,78127.19
2023-02-05T15:00:01.786Z,78153.50
2023-02-05T15:10:07.860Z,78210.22
2023-02-05T15:20:22.839Z,78244.63
2023-02-05T15:30:34.123Z,78244.63
2023-02-05T15:40:51.903Z,78240.59
2023-02-05T15:50:58.648Z,78264.88
2023-02-05T16:01:05.365Z,78250.72
2023-02-05T16:11:07.694Z,78266.91
2023-02-05T16:21:29.368Z,78256.78
2023-02-05T16:31:33.227Z,78289.19
2023-02-05T16:41:42.460Z,78273.00
2023-02-05T16:51:49.859Z,78236.53
2023-02-05T17:01:53.035Z,78163.63
2023-02-05T17:11:57.654Z,78113.00
2023-02-05T17:22:24.532Z,78175.78
2023-02-05T17:32:27.245Z,78232.47
2023-02-05T17:42:31.381Z,78252.72
2023-02-05T17:52:35.942Z,78212.22
2023-02-05T18:02:40.886Z,78283.13
2023-02-05T18:12:47.420Z,78295.25
2023-02-05T18:22:56.548Z,78329.69
2023-02-05T18:33:07.916Z,78374.25
2023-02-05T18:43:13.501Z,78420.81
2023-02-05T18:53:20.216Z,78416.78
2023-02-05T19:03:25.047Z,78471.44
2023-02-05T19:13:32.104Z,78487.66
2023-02-05T19:23:36.530Z,78497.78
2023-02-05T19:33:44.216Z,78499.81
2023-02-05T19:43:55.231Z,78520.06
2023-02-05T19:54:03.269Z,78548.41
2023-02-05T20:04:19.085Z,78584.88
2023-02-05T20:14:24.138Z,78613.22
2023-02-05T20:24:38.799Z,78637.53
2023-02-05T20:34:57.314Z,78651.69
2023-02-05T20:45:04.473Z,78673.97
2023-02-05T20:55:11.250Z,78706.38
2023-02-05T21:05:31.083Z,78726.63
2023-02-05T21:15:39.160Z,78734.72
2023-02-05T21:25:57.020Z,78746.88
2023-02-05T21:36:07.403Z,78734.72
2023-02-05T21:46:13.282Z,78750.94
2023-02-05T21:56:19.172Z,78730.69
2023-02-05T22:06:30.150Z,78746.88
2023-02-05T22:16:36.486Z,78763.09
2023-02-05T22:26:46.315Z,78795.50
2023-02-05T22:36:53.563Z,78803.59
2023-02-05T22:46:58.194Z,78813.72
2023-02-05T22:57:00.262Z,78807.66
2023-02-05T23:07:04.441Z,78811.69
2023-02-05T23:17:08.716Z,78815.75
2023-02-05T23:27:13.230Z,78815.75
2023-02-05T23:37:16.255Z,78838.03
2023-02-05T23:47:18.323Z,78852.19
2023-02-05T23:57:28.459Z,78856.25
